Time;durP1;ratioP1;P1;durP2;ratioP2;P2;SDS_P1;SDS_P2;PMS_P1;PMS_P2;Temp;Humidity;BMP_temperature;BMP_pressure;BME280_temperature;BME280_humidity;BME280_pressure;Samples;Min_cycle;Max_cycle;Signal;HPM_P1;HPM_P2
2023/03/02 00:01:10;;;;;;;53.33;47.72;;;;;;;0.77;81.22;95514.59;5040103;28;20029;-59
2023/03/02 00:03:37;;;;;;;51.85;46.20;;;;;;;0.83;80.41;95513.41;5036946;28;20035;-58
2023/03/02 00:06:03;;;;;;;56.28;49.40;;;;;;;0.84;81.22;95512.50;5038872;28;20440;-59
2023/03/02 00:08:29;;;;;;;64.53;56.20;;;;;;;0.80;81.16;95516.19;5040781;28;20025;-59
2023/03/02 00:10:56;;;;;;;55.92;49.88;;;;;;;0.61;82.53;95512.03;5042495;28;20028;-58
2023/03/02 00:13:22;;;;;;;65.15;52.45;;;;;;;0.62;82.71;95518.06;5041690;28;20037;-58
2023/03/02 00:15:47;;;;;;;56.63;50.63;;;;;;;0.62;81.75;95521.47;5036841;28;20406;-58
2023/03/02 00:18:13;;;;;;;57.35;51.20;;;;;;;0.62;82.49;95512.88;5049450;28;20113;-58
2023/03/02 00:20:38;;;;;;;55.92;50.15;;;;;;;0.76;81.60;95512.94;5036654;28;20047;-59
2023/03/02 00:23:03;;;;;;;54.53;48.28;;;;;;;0.59;81.90;95523.41;5037546;28;20075;-58
2023/03/02 00:25:29;;;;;;;54.75;49.10;;;;;;;0.55;83.37;95527.94;5042175;28;20020;-58
2023/03/02 00:27:54;;;;;;;55.75;49.83;;;;;;;0.60;82.51;95528.50;5036417;28;20040;-59
2023/03/02 00:30:19;;;;;;;55.45;49.67;;;;;;;0.62;82.19;95531.03;5039608;28;20040;-64
2023/03/02 00:32:45;;;;;;;58.92;51.42;;;;;;;0.53;83.23;95532.34;5044388;28;20423;-59
2023/03/02 00:35:10;;;;;;;57.03;50.78;;;;;;;0.52;83.15;95530.69;5041103;28;20044;-58
2023/03/02 00:37:37;;;;;;;55.40;49.55;;;;;;;0.73;81.63;95533.84;5042918;28;20017;-58
2023/03/02 00:40:05;;;;;;;54.92;49.20;;;;;;;0.52;82.94;95531.50;5040921;28;20051;-58
2023/03/02 00:42:31;;;;;;;55.63;49.72;;;;;;;0.65;82.96;95521.28;5035485;28;20028;-58
2023/03/02 00:44:58;;;;;;;57.55;51.55;;;;;;;0.53;82.91;95528.00;5043273;28;20018;-58
2023/03/02 00:47:23;;;;;;;57.17;51.05;;;;;;;0.40;84.05;95527.84;5041090;28;20529;-61
2023/03/02 00:49:48;;;;;;;58.15;51.95;;;;;;;0.36;84.60;95536.69;5035061;28;20025;-64
2023/03/02 00:52:15;;;;;;;56.78;50.80;;;;;;;0.35;85.14;95534.22;5036965;28;20030;-58
2023/03/02 00:54:40;;;;;;;58.30;52.00;;;;;;;0.33;85.17;95533.44;5043419;28;20036;-59
2023/03/02 00:57:06;;;;;;;59.00;52.63;;;;;;;0.38;84.99;95528.84;5041745;28;20045;-58
2023/03/02 00:59:31;;;;;;;56.88;50.65;;;;;;;0.40;85.16;95527.00;5043173;28;20068;-58
2023/03/02 01:01:59;;;;;;;56.03;49.08;;;;;;;0.41;84.79;95528.69;5042175;28;20029;-59
2023/03/02 01:04:33;;;;;;;58.00;51.75;;;;;;;0.39;84.65;95522.75;5039428;28;20494;-61
2023/03/02 01:07:02;;;;;;;58.45;51.45;;;;;;;0.36;85.83;95523.75;5041632;28;20025;-67
2023/03/02 01:09:28;;;;;;;59.90;53.53;;;;;;;0.37;85.64;95535.78;5038311;28;20051;-64
2023/03/02 01:11:54;;;;;;;60.67;54.05;;;;;;;0.35;86.01;95523.84;5041264;28;20032;-62
2023/03/02 01:14:19;;;;;;;57.85;51.63;;;;;;;0.33;86.15;95536.00;5035483;28;20037;-62
2023/03/02 01:16:46;;;;;;;61.15;54.67;;;;;;;0.33;86.12;95538.59;5043482;28;20017;-61
2023/03/02 01:19:14;;;;;;;57.67;51.50;;;;;;;0.31;86.41;95537.84;5036879;28;20033;-61
2023/03/02 01:21:40;;;;;;;56.78;50.80;;;;;;;0.47;85.09;95533.53;5042338;28;20044;-62
2023/03/02 01:24:07;;;;;;;58.75;51.60;;;;;;;0.61;84.21;95540.53;5042658;28;20037;-62
2023/03/02 01:26:33;;;;;;;58.55;52.15;;;;;;;0.54;84.58;95529.66;5036454;28;20025;-64
2023/03/02 01:28:58;;;;;;;59.60;52.72;;;;;;;0.48;84.64;95529.19;5038010;28;20108;-59
2023/03/02 01:31:25;;;;;;;63.00;53.72;;;;;;;0.42;85.21;95530.34;5042443;28;20044;-64
2023/03/02 01:33:50;;;;;;;59.58;52.63;;;;;;;0.44;85.08;95525.94;5024589;28;20024;-64
2023/03/02 01:36:16;;;;;;;57.67;50.30;;;;;;;0.45;85.18;95519.00;5044556;28;20045;-64
2023/03/02 01:38:41;;;;;;;58.88;52.58;;;;;;;0.43;84.79;95514.72;5041047;28;20032;-64
2023/03/02 01:41:07;;;;;;;60.88;53.70;;;;;;;0.45;85.88;95514.63;5036529;28;20029;-64
2023/03/02 01:43:32;;;;;;;58.13;51.28;;;;;;;0.48;84.48;95513.66;5037602;28;20025;-64
2023/03/02 01:46:06;;;;;;;62.83;53.55;;;;;;;0.44;84.48;95505.19;5040621;28;20029;-68
2023/03/02 01:48:40;;;;;;;64.00;55.47;;;;;;;0.47;85.18;95514.56;5032560;28;20112;-63
2023/03/02 01:51:06;;;;;;;64.57;54.75;;;;;;;0.47;84.58;95511.97;5036841;28;20039;-59
2023/03/02 01:53:33;;;;;;;60.55;53.97;;;;;;;0.45;85.67;95509.47;5022797;28;20025;-59
2023/03/02 01:56:01;;;;;;;60.40;53.67;;;;;;;0.42;86.85;95507.03;5041608;28;20525;-59
2023/03/02 01:58:30;;;;;;;59.78;53.65;;;;;;;0.37;86.70;95506.47;5045371;28;20029;-58
2023/03/02 02:00:56;;;;;;;61.13;52.25;;;;;;;0.38;86.55;95502.97;5048453;28;20032;-59
2023/03/02 02:03:29;;;;;;;63.33;53.63;;;;;;;0.36;87.19;95499.63;5044713;28;20068;-59
2023/03/02 02:06:06;;;;;;;64.00;54.97;;;;;;;0.38;86.78;95501.19;5043644;28;20024;-58
2023/03/02 02:08:32;;;;;;;58.58;52.22;;;;;;;0.46;85.41;95497.34;5036910;28;20029;-68
2023/03/02 02:10:58;;;;;;;58.00;51.80;;;;;;;0.43;85.46;95496.56;5046125;28;20028;-62
2023/03/02 02:13:23;;;;;;;57.53;51.42;;;;;;;0.42;85.99;95488.91;5043312;28;20026;-62
2023/03/02 02:15:49;;;;;;;58.95;52.67;;;;;;;0.43;85.90;95495.75;5048269;28;20029;-61
2023/03/02 02:18:15;;;;;;;59.90;52.55;;;;;;;0.47;85.35;95492.06;5037531;28;20021;-62
2023/03/02 02:20:46;;;;;;;60.75;52.88;;;;;;;0.57;85.10;95490.66;5045629;28;20739;-61
2023/03/02 02:23:23;;;;;;;62.47;55.38;;;;;;;0.47;86.05;95494.66;5040775;28;20037;-61
2023/03/02 02:25:48;;;;;;;63.08;55.15;;;;;;;0.45;86.51;95500.88;5044479;28;20027;-64
2023/03/02 02:28:20;;;;;;;62.50;54.17;;;;;;;0.41;86.85;95500.19;5044913;28;20025;-62
2023/03/02 02:30:50;;;;;;;60.60;52.83;;;;;;;0.40;86.47;95490.75;5044221;28;20398;-61
2023/03/02 02:33:20;;;;;;;60.15;53.90;;;;;;;0.40;86.54;95495.94;5044547;28;20491;-61
2023/03/02 02:35:47;;;;;;;59.67;53.40;;;;;;;0.38;86.57;95501.19;5041755;28;20036;-61
2023/03/02 02:38:17;;;;;;;60.50;53.38;;;;;;;0.38;86.73;95498.59;5039479;28;20029;-62
2023/03/02 02:40:51;;;;;;;58.67;52.03;;;;;;;0.39;86.36;95497.69;5039394;28;20041;-61
2023/03/02 02:43:19;;;;;;;65.78;55.05;;;;;;;0.37;86.84;95499.50;5039286;28;20092;-55
2023/03/02 02:45:48;;;;;;;65.35;56.13;;;;;;;0.39;86.71;95502.03;5043541;28;20025;-63
2023/03/02 02:48:16;;;;;;;55.90;49.63;;;;;;;0.39;86.08;95492.50;5040534;28;20056;-68
2023/03/02 02:50:43;;;;;;;63.55;56.17;;;;;;;0.41;86.40;95497.59;5039108;28;20029;-69
2023/03/02 02:53:17;;;;;;;57.72;51.47;;;;;;;0.41;86.33;95500.19;5042772;28;20024;-69
2023/03/02 02:55:46;;;;;;;61.90;53.53;;;;;;;0.41;86.84;95497.59;5039047;28;20061;-68
2023/03/02 02:58:49;;;;;;;63.10;56.17;;;;;;;0.40;87.22;95496.75;5042012;28;20514;-68
2023/03/02 03:01:17;;;;;;;66.82;56.92;;;;;;;0.31;88.95;95496.41;5037126;28;20052;-68
2023/03/02 03:03:51;;;;;;;60.13;52.20;;;;;;;0.24;88.69;95483.81;5038506;28;20022;-64
2023/03/02 03:06:19;;;;;;;61.83;55.17;;;;;;;0.21;89.01;95489.16;5042477;28;20040;-59
2023/03/02 03:08:45;;;;;;;61.13;53.65;;;;;;;0.34;87.25;95499.69;5041092;28;20016;-59
2023/03/02 03:11:13;;;;;;;62.28;53.72;;;;;;;0.27;88.28;95496.59;5040639;28;20391;-58
2023/03/02 03:13:41;;;;;;;62.03;53.30;;;;;;;0.25;88.57;95502.78;5041568;28;20041;-59
2023/03/02 03:16:10;;;;;;;58.53;52.20;;;;;;;0.21;89.22;95494.34;5040452;28;20032;-59
2023/03/02 03:18:36;;;;;;;60.38;52.80;;;;;;;0.20;90.00;95490.09;5040964;28;20482;-59
2023/03/02 03:21:01;;;;;;;62.72;55.53;;;;;;;0.19;89.64;95492.75;5045006;28;20445;-59
2023/03/02 03:23:27;;;;;;;61.70;53.53;;;;;;;0.12;89.38;95492.28;5039948;28;20024;-64
2023/03/02 03:25:52;;;;;;;61.42;52.17;;;;;;;0.10;89.14;95487.16;5043519;28;20498;-58
2023/03/02 03:28:17;;;;;;;59.75;53.20;;;;;;;0.09;89.02;95493.25;5026712;28;20131;-63
2023/03/02 03:30:43;;;;;;;61.17;54.28;;;;;;;0.06;89.10;95495.16;5044518;28;20052;-63
2023/03/02 03:33:09;;;;;;;63.10;54.47;;;;;;;0.01;89.40;95495.44;5037762;28;20071;-63
2023/03/02 03:35:39;;;;;;;56.42;50.33;;;;;;;-0.01;88.97;95498.09;5037520;28;20083;-63
2023/03/02 03:38:05;;;;;;;57.25;50.45;;;;;;;-0.05;90.23;95506.09;5045461;28;20021;-63
2023/03/02 03:40:33;;;;;;;60.10;53.60;;;;;;;-0.07;89.70;95493.25;5040026;28;20040;-63
2023/03/02 03:43:02;;;;;;;57.85;50.58;;;;;;;-0.10;89.82;95498.59;5038636;28;20833;-68
2023/03/02 03:45:28;;;;;;;57.35;51.08;;;;;;;-0.13;90.30;95492.72;5043698;28;20548;-60
2023/03/02 03:47:53;;;;;;;56.63;50.50;;;;;;;-0.19;90.89;95502.50;5043970;28;20028;-58
2023/03/02 03:50:19;;;;;;;55.35;49.20;;;;;;;-0.28;91.15;95499.56;5039579;28;20041;-58
2023/03/02 03:52:44;;;;;;;56.70;50.72;;;;;;;-0.35;91.80;95492.09;5042401;28;20142;-58
2023/03/02 03:55:11;;;;;;;57.33;49.38;;;;;;;-0.39;91.85;95498.34;5045204;28;20036;-58
2023/03/02 03:57:36;;;;;;;56.45;49.92;;;;;;;-0.45;93.76;95498.69;5047574;28;20121;-58
2023/03/02 04:00:06;;;;;;;55.40;48.70;;;;;;;-0.50;93.29;95492.91;5043528;28;20121;-58
2023/03/02 04:02:32;;;;;;;55.20;49.30;;;;;;;-0.51;93.33;95488.66;5039421;28;20029;-64
2023/03/02 04:05:05;;;;;;;55.85;49.85;;;;;;;-0.56;93.81;95499.22;5042791;28;20398;-61
2023/03/02 04:07:34;;;;;;;55.17;48.45;;;;;;;-0.56;94.11;95501.81;5044395;28;20116;-61
2023/03/02 04:10:02;;;;;;;56.10;49.42;;;;;;;-0.54;92.70;95504.34;5036043;28;20029;-61
2023/03/02 04:12:28;;;;;;;55.55;49.45;;;;;;;-0.55;92.67;95502.63;5040578;28;20021;-61
2023/03/02 04:14:53;;;;;;;54.35;48.45;;;;;;;-0.54;92.65;95499.97;5042082;28;20025;-61
2023/03/02 04:17:19;;;;;;;54.13;47.83;;;;;;;-0.45;91.63;95498.69;5040837;28;20075;-61
2023/03/02 04:19:44;;;;;;;52.92;46.92;;;;;;;-0.45;91.75;95498.69;5038806;28;20033;-61
2023/03/02 04:22:10;;;;;;;59.05;51.22;;;;;;;-0.46;92.07;95513.34;5041445;28;20542;-63
2023/03/02 04:24:35;;;;;;;62.45;50.28;;;;;;;-0.46;92.87;95509.94;5049574;28;20135;-58
2023/03/02 04:27:01;;;;;;;59.08;52.88;;;;;;;-0.48;93.03;95512.59;5044041;28;20025;-58
2023/03/02 04:29:26;;;;;;;55.78;49.85;;;;;;;-0.45;93.14;95512.44;5043048;28;20366;-58
2023/03/02 04:31:52;;;;;;;56.17;49.92;;;;;;;-0.33;92.29;95517.91;5044349;28;20104;-59
2023/03/02 04:34:17;;;;;;;54.25;48.40;;;;;;;-0.41;92.66;95518.28;5043758;28;20553;-59
2023/03/02 04:36:43;;;;;;;54.25;48.33;;;;;;;-0.41;94.19;95522.66;5044458;28;20100;-58
2023/03/02 04:39:11;;;;;;;58.13;50.13;;;;;;;-0.36;93.66;95523.22;5042009;28;20026;-59
2023/03/02 04:41:36;;;;;;;57.88;51.47;;;;;;;-0.33;93.16;95521.34;5046057;28;20449;-59
2023/03/02 04:44:02;;;;;;;56.58;50.38;;;;;;;-0.36;93.35;95518.88;5041421;28;20032;-59
2023/03/02 04:46:28;;;;;;;55.92;49.05;;;;;;;-0.33;93.17;95512.72;5048551;28;20028;-58
2023/03/02 04:48:54;;;;;;;55.65;49.63;;;;;;;-0.26;92.03;95510.66;5042279;28;20039;-59
2023/03/02 04:51:24;;;;;;;54.92;48.90;;;;;;;-0.24;92.09;95516.59;5044004;28;20086;-58
2023/03/02 04:53:54;;;;;;;55.40;48.63;;;;;;;-0.26;92.25;95513.25;5045299;28;20031;-58
2023/03/02 04:56:20;;;;;;;54.38;48.47;;;;;;;-0.22;91.52;95518.19;5037182;28;20454;-58
2023/03/02 04:58:45;;;;;;;58.70;50.33;;;;;;;-0.27;91.60;95519.34;5044369;28;20075;-59
2023/03/02 05:01:12;;;;;;;56.83;48.05;;;;;;;-0.28;91.62;95513.31;5042736;28;20048;-63
2023/03/02 05:03:38;;;;;;;55.60;48.47;;;;;;;-0.26;91.87;95513.25;5041443;28;20033;-59
2023/03/02 05:06:04;;;;;;;55.28;48.40;;;;;;;-0.25;91.73;95520.09;5043922;28;20020;-59
2023/03/02 05:08:30;;;;;;;58.05;49.97;;;;;;;-0.24;92.30;95514.00;5039102;28;20079;-59
2023/03/02 05:10:57;;;;;;;66.05;55.65;;;;;;;-0.28;92.72;95517.66;5045063;28;20016;-59
2023/03/02 05:13:22;;;;;;;59.38;50.85;;;;;;;-0.30;92.96;95523.75;5045188;28;20124;-58
2023/03/02 05:15:49;;;;;;;58.38;52.00;;;;;;;-0.24;92.61;95521.75;5044972;28;20570;-59
2023/03/02 05:18:15;;;;;;;55.58;49.55;;;;;;;-0.25;93.72;95522.69;5042405;28;20398;-64
2023/03/02 05:20:40;;;;;;;62.10;51.17;;;;;;;-0.24;93.32;95521.75;5025621;28;20025;-59
2023/03/02 05:23:07;;;;;;;57.60;49.70;;;;;;;-0.25;93.67;95530.44;5042308;28;20079;-62
2023/03/02 05:25:35;;;;;;;60.30;50.90;;;;;;;-0.22;93.59;95530.28;5040140;28;20029;-62
2023/03/02 05:28:01;;;;;;;56.60;48.83;;;;;;;-0.26;93.57;95529.59;5041542;28;20021;-61
2023/03/02 05:30:27;;;;;;;59.63;49.20;;;;;;;-0.22;93.49;95535.44;5047105;28;20024;-62
2023/03/02 05:32:53;;;;;;;58.03;49.05;;;;;;;-0.27;93.77;95543.44;5048697;28;20025;-61
2023/03/02 05:35:20;;;;;;;54.25;47.25;;;;;;;-0.27;93.42;95540.03;5047224;28;20032;-62
2023/03/02 05:37:45;;;;;;;55.30;48.85;;;;;;;-0.27;93.68;95543.44;5049375;28;20085;-59
2023/03/02 05:40:15;;;;;;;54.40;47.70;;;;;;;-0.25;94.22;95548.56;5049433;28;20037;-61
2023/03/02 05:42:41;;;;;;;52.47;46.72;;;;;;;-0.13;92.46;95537.53;5041112;28;20437;-64
2023/03/02 05:45:12;;;;;;;52.45;46.85;;;;;;;-0.13;91.42;95550.50;5030192;28;20025;-63
2023/03/02 05:47:37;;;;;;;56.92;49.17;;;;;;;-0.15;92.24;95555.75;5046997;28;20668;-64
2023/03/02 05:50:03;;;;;;;55.75;49.35;;;;;;;-0.01;91.02;95549.84;5047121;28;20021;-64
2023/03/02 05:52:28;;;;;;;56.58;50.38;;;;;;;0.14;89.95;95553.38;5047009;28;20488;-63
2023/03/02 05:54:53;;;;;;;57.28;50.28;;;;;;;-0.03;90.81;95561.19;5045212;28;20017;-64
2023/03/02 05:57:19;;;;;;;55.55;49.53;;;;;;;-0.10;91.82;95559.84;5040614;28;20049;-62
2023/03/02 05:59:45;;;;;;;56.28;48.15;;;;;;;-0.14;93.07;95561.75;5045453;28;20026;-59
2023/03/02 06:02:12;;;;;;;53.53;47.75;;;;;;;-0.13;92.87;95553.06;5048555;28;20076;-64
2023/03/02 06:04:41;;;;;;;58.88;51.80;;;;;;;-0.15;93.38;95558.34;5044404;28;20029;-62
2023/03/02 06:07:10;;;;;;;61.10;51.78;;;;;;;-0.16;93.30;95573.94;5048418;28;20383;-62
2023/03/02 06:09:37;;;;;;;61.47;51.50;;;;;;;-0.11;92.43;95579.75;5048037;28;20049;-62
2023/03/02 06:12:04;;;;;;;59.67;52.13;;;;;;;-0.12;91.46;95578.03;5036425;28;20044;-62
2023/03/02 06:14:29;;;;;;;56.75;50.50;;;;;;;-0.12;91.39;95580.63;5045113;28;20059;-63
2023/03/02 06:16:54;;;;;;;61.10;49.00;;;;;;;-0.10;91.19;95591.75;5049318;28;20048;-59
2023/03/02 06:19:20;;;;;;;57.53;50.58;;;;;;;-0.06;90.81;95593.28;5045126;28;20048;-63
2023/03/02 06:21:45;;;;;;;56.47;48.58;;;;;;;-0.04;89.70;95588.00;5041864;28;20029;-63
2023/03/02 06:24:10;;;;;;;57.30;48.70;;;;;;;-0.02;90.33;95596.53;5037814;28;20037;-64
2023/03/02 06:26:36;;;;;;;52.30;45.88;;;;;;;0.08;90.33;95586.53;5041152;28;20112;-63
2023/03/02 06:29:01;;;;;;;57.33;48.08;;;;;;;0.06;90.29;95596.13;5030453;28;20674;-64
2023/03/02 06:31:26;;;;;;;51.75;46.20;;;;;;;-0.02;91.06;95599.97;5041426;28;20067;-64
2023/03/02 06:33:52;;;;;;;62.53;47.45;;;;;;;-0.10;91.62;95591.75;5042304;28;20036;-64
2023/03/02 06:36:18;;;;;;;56.05;49.13;;;;;;;-0.10;91.59;95614.22;5046951;28;20104;-62
2023/03/02 06:38:43;;;;;;;55.97;48.85;;;;;;;-0.20;92.11;95606.94;5044314;28;20053;-68
2023/03/02 06:41:09;;;;;;;55.33;48.45;;;;;;;-0.22;91.84;95605.31;5039275;28;20033;-58
2023/03/02 06:43:34;;;;;;;53.75;46.90;;;;;;;-0.20;91.63;95614.69;5038081;28;20040;-57
2023/03/02 06:46:00;;;;;;;55.40;49.22;;;;;;;-0.17;92.12;95608.50;5041423;28;20561;-57
2023/03/02 06:48:25;;;;;;;56.95;48.35;;;;;;;-0.17;92.26;95605.91;5044789;28;20550;-57
2023/03/02 06:50:51;;;;;;;56.85;48.85;;;;;;;-0.21;93.68;95605.25;5047825;28;20029;-58
2023/03/02 06:53:19;;;;;;;55.13;49.05;;;;;;;-0.26;93.61;95606.41;5045547;28;20114;-58
2023/03/02 06:55:46;;;;;;;54.03;48.03;;;;;;;-0.25;92.75;95613.25;5043688;28;20046;-59
2023/03/02 06:58:12;;;;;;;55.83;49.53;;;;;;;-0.22;91.76;95615.66;5045080;28;20065;-64
2023/03/02 07:00:38;;;;;;;56.00;48.03;;;;;;;-0.21;92.01;95615.59;5049286;28;20068;-69
2023/03/02 07:03:03;;;;;;;56.67;50.03;;;;;;;-0.11;91.40;95621.16;5041227;28;20024;-69
2023/03/02 07:05:31;;;;;;;56.97;48.60;;;;;;;-0.02;90.51;95610.31;5047872;28;20032;-72
2023/03/02 07:07:59;;;;;;;57.22;50.30;;;;;;;0.00;90.65;95618.00;5043618;28;20430;-71
2023/03/02 07:10:24;;;;;;;65.72;53.83;;;;;;;0.06;90.58;95616.84;5044131;28;20398;-73
2023/03/02 07:12:51;;;;;;;60.47;53.65;;;;;;;0.08;91.20;95618.44;5048715;28;20032;-72
2023/03/02 07:15:17;;;;;;;82.97;67.78;;;;;;;0.31;90.65;95619.00;5043469;28;20032;-56
2023/03/02 07:17:44;;;;;;;78.70;58.80;;;;;;;0.27;90.35;95615.72;5043742;28;20044;-65
2023/03/02 07:20:11;;;;;;;70.07;56.30;;;;;;;0.43;89.20;95620.09;5041720;28;20517;-61
2023/03/02 07:22:37;;;;;;;65.78;55.08;;;;;;;0.24;90.39;95625.41;5042436;28;20101;-61
2023/03/02 07:25:03;;;;;;;66.80;55.30;;;;;;;0.22;91.04;95614.28;5045723;28;20044;-61
2023/03/02 07:27:28;;;;;;;69.05;56.30;;;;;;;0.23;91.08;95619.38;5037584;28;20063;-61
2023/03/02 07:29:54;;;;;;;68.60;56.90;;;;;;;0.28;90.51;95627.75;5040990;28;20560;-61
2023/03/02 07:32:19;;;;;;;68.35;54.22;;;;;;;0.40;89.76;95631.44;5039940;28;20047;-58
2023/03/02 07:34:44;;;;;;;58.05;51.75;;;;;;;0.60;88.80;95644.28;5047335;28;20060;-66
2023/03/02 07:37:10;;;;;;;59.40;51.25;;;;;;;0.82;87.79;95651.72;5045811;28;20032;-55
2023/03/02 07:39:35;;;;;;;65.65;56.67;;;;;;;0.96;86.14;95650.97;5046236;28;20017;-56
2023/03/02 07:42:03;;;;;;;66.60;56.45;;;;;;;0.97;87.64;95644.84;5047345;28;20033;-54
2023/03/02 07:44:28;;;;;;;66.97;57.80;;;;;;;0.93;87.41;95651.97;5037755;28;20071;-58
2023/03/02 07:46:54;;;;;;;57.38;50.38;;;;;;;0.88;87.70;95653.16;5051671;28;20552;-59
2023/03/02 07:49:19;;;;;;;59.40;47.95;;;;;;;0.77;88.30;95654.53;5038713;28;20144;-59
2023/03/02 07:51:45;;;;;;;58.33;50.45;;;;;;;0.65;88.64;95652.63;5040308;28;20380;-57
2023/03/02 07:54:10;;;;;;;55.72;48.47;;;;;;;0.65;88.86;95650.88;5041575;28;20025;-62
2023/03/02 07:56:36;;;;;;;53.80;47.95;;;;;;;0.65;89.30;95652.63;5037545;28;20533;-65
2023/03/02 07:59:01;;;;;;;54.25;47.08;;;;;;;0.60;89.51;95658.06;5041705;28;20082;-65
2023/03/02 08:01:27;;;;;;;56.35;49.88;;;;;;;0.71;88.58;95652.28;5035101;28;20049;-65
2023/03/02 08:03:52;;;;;;;59.30;51.67;;;;;;;0.66;89.07;95652.56;5037773;28;20044;-64
2023/03/02 08:06:18;;;;;;;57.17;48.17;;;;;;;0.78;89.04;95651.06;5039855;28;20044;-64
2023/03/02 08:08:43;;;;;;;53.53;47.67;;;;;;;1.12;87.54;95640.59;5037441;28;20017;-64
2023/03/02 08:11:12;;;;;;;63.60;52.60;;;;;;;1.38;86.73;95651.28;5042431;28;20032;-64
2023/03/02 08:13:37;;;;;;;57.53;51.25;;;;;;;1.58;85.43;95642.34;5042247;28;20025;-69
2023/03/02 08:16:05;;;;;;;73.82;59.55;;;;;;;1.75;84.74;95643.13;5042273;28;20025;-62
2023/03/02 08:18:31;;;;;;;64.28;52.92;;;;;;;2.05;83.75;95644.84;5036249;28;20026;-62
2023/03/02 08:20:57;;;;;;;58.10;50.83;;;;;;;2.25;81.21;95641.91;5035416;28;20575;-62
2023/03/02 08:23:23;;;;;;;57.55;50.30;;;;;;;2.63;80.31;95642.28;5034902;28;20116;-61
2023/03/02 08:25:49;;;;;;;57.50;47.72;;;;;;;2.88;79.84;95643.34;5033018;28;20151;-62
2023/03/02 08:28:14;;;;;;;51.40;45.95;;;;;;;2.93;78.68;95636.09;5039234;28;20500;-61
2023/03/02 08:30:43;;;;;;;50.95;45.65;;;;;;;2.94;77.76;95641.22;5036065;28;20483;-62
2023/03/02 08:33:08;;;;;;;50.17;44.88;;;;;;;3.20;77.07;95651.75;5039702;28;20048;-62
2023/03/02 08:35:33;;;;;;;50.72;45.25;;;;;;;3.37;76.54;95653.25;5041065;28;20073;-67
2023/03/02 08:37:59;;;;;;;50.53;45.03;;;;;;;3.53;74.56;95657.47;5038896;28;20029;-70
2023/03/02 08:40:25;;;;;;;48.67;43.38;;;;;;;3.75;74.97;95653.47;5044575;28;20387;-69
2023/03/02 08:42:55;;;;;;;50.83;45.42;;;;;;;3.90;73.65;95654.22;5042438;28;20037;-68
2023/03/02 08:45:24;;;;;;;50.95;45.58;;;;;;;4.21;71.71;95653.00;5042003;28;20032;-68
2023/03/02 08:47:52;;;;;;;55.70;48.47;;;;;;;4.48;70.81;95652.06;5037122;28;20352;-68
2023/03/02 08:50:17;;;;;;;49.50;44.10;;;;;;;4.57;70.34;95651.44;5037807;28;20414;-68
2023/03/02 08:52:43;;;;;;;49.30;43.88;;;;;;;4.72;69.88;95646.09;5036136;28;20028;-69
2023/03/02 08:55:09;;;;;;;51.70;46.00;;;;;;;4.68;67.14;95657.69;5040296;28;20076;-69
2023/03/02 08:57:34;;;;;;;53.00;47.38;;;;;;;4.19;67.57;95647.06;5039395;28;20045;-69
2023/03/02 08:59:59;;;;;;;54.08;45.67;;;;;;;3.74;68.33;95647.41;5042588;28;20071;-69
2023/03/02 09:02:25;;;;;;;49.08;43.78;;;;;;;3.78;67.50;95646.31;5037834;28;20070;-67
2023/03/02 09:04:50;;;;;;;54.70;48.47;;;;;;;3.24;70.27;95641.97;5039941;28;20409;-69
2023/03/02 09:07:16;;;;;;;57.13;47.75;;;;;;;3.53;69.78;95647.88;5039072;28;20402;-67
2023/03/02 09:09:42;;;;;;;54.50;45.28;;;;;;;3.78;69.17;95655.88;5046097;28;20025;-58
2023/03/02 09:12:07;;;;;;;49.15;42.85;;;;;;;3.84;68.06;95655.47;5032141;28;20030;-57
2023/03/02 09:14:32;;;;;;;55.55;44.85;;;;;;;3.86;67.75;95646.63;5038768;28;20379;-68
2023/03/02 09:16:58;;;;;;;55.80;49.67;;;;;;;3.26;69.78;95640.94;5048480;28;20017;-68
2023/03/02 09:19:23;;;;;;;52.65;47.05;;;;;;;2.83;71.40;95654.88;5036056;28;20040;-69
2023/03/02 09:21:48;;;;;;;54.45;47.92;;;;;;;2.81;71.86;95653.31;5044326;28;20020;-69
2023/03/02 09:24:14;;;;;;;53.70;47.55;;;;;;;3.13;70.96;95659.09;5043429;28;20123;-68
2023/03/02 09:26:40;;;;;;;53.20;47.28;;;;;;;3.30;69.68;95646.78;5043869;28;20017;-68
2023/03/02 09:29:06;;;;;;;53.97;48.13;;;;;;;3.19;72.10;95649.22;5037960;28;20418;-67
2023/03/02 09:31:32;;;;;;;57.38;51.10;;;;;;;3.49;71.55;95653.41;5037678;28;20068;-69
2023/03/02 09:33:57;;;;;;;51.78;46.00;;;;;;;3.82;67.56;95652.13;5037729;28;20467;-64
2023/03/02 09:36:25;;;;;;;53.15;47.45;;;;;;;3.83;67.82;95656.41;5036503;28;20038;-65
2023/03/02 09:38:51;;;;;;;50.70;43.20;;;;;;;4.20;66.40;95653.94;5036927;28;20074;-64
2023/03/02 09:41:19;;;;;;;53.42;46.17;;;;;;;4.21;65.58;95655.63;5038679;28;20033;-65
2023/03/02 09:44:10;;;;;;;53.08;47.08;;;;;;;4.17;66.47;95659.38;5036593;28;20028;-65
2023/03/02 09:46:45;;;;;;;50.45;43.85;;;;;;;4.40;65.28;95656.97;5038569;28;20021;-65
2023/03/02 09:49:40;;;;;;;52.67;46.97;;;;;;;4.32;64.97;95662.72;5040071;28;20487;-69
2023/03/02 09:52:28;;;;;;;52.42;44.72;;;;;;;4.69;63.46;95657.59;5042525;28;20029;-61
2023/03/02 09:54:55;;;;;;;52.78;47.10;;;;;;;4.67;64.40;95658.63;5033614;28;20026;-61
2023/03/02 09:57:24;;;;;;;51.47;43.08;;;;;;;5.06;63.16;95662.00;5035235;28;20061;-61
2023/03/02 10:00:00;;;;;;;54.72;47.80;;;;;;;5.14;63.04;95661.47;5039813;28;20491;-61
2023/03/02 10:02:33;;;;;;;;;;;;;;;5.34;61.81;95654.78;5038787;28;20037;-61
2023/03/02 10:05:01;;;;;;;51.17;45.75;;;;;;;4.97;62.85;95654.81;5036597;28;19913;-61
2023/03/02 10:07:35;;;;;;;48.60;43.40;;;;;;;4.91;62.05;95655.25;5037073;28;20036;-61
2023/03/02 10:10:12;;;;;;;52.72;46.22;;;;;;;5.06;62.15;95648.94;5038764;28;20025;-63
2023/03/02 10:12:59;;;;;;;50.97;45.45;;;;;;;5.21;61.64;95654.84;5040524;28;20025;-65
2023/03/02 10:15:44;;;;;;;51.42;45.85;;;;;;;5.37;61.42;95654.56;5043245;28;20017;-64
2023/03/02 10:18:10;;;;;;;57.07;47.83;;;;;;;5.73;61.07;95647.63;5043598;28;20079;-65
2023/03/02 10:20:43;;;;;;;50.15;44.42;;;;;;;5.82;60.65;95653.94;5050362;28;20029;-64
2023/03/02 10:23:29;;;;;;;51.13;45.67;;;;;;;5.74;59.93;95656.28;5038609;28;20047;-64
2023/03/02 10:26:04;;;;;;;50.38;44.03;;;;;;;5.62;60.38;95657.19;5051571;28;20048;-63
2023/03/02 10:28:40;;;;;;;54.38;48.60;;;;;;;5.35;62.15;95646.03;5046491;28;20089;-62
2023/03/02 10:31:15;;;;;;;57.10;47.50;;;;;;;5.52;59.92;95649.19;5043687;28;20521;-63
2023/03/02 10:33:40;;;;;;;53.88;46.63;;;;;;;5.86;59.00;95641.50;5045789;28;20088;-63
2023/03/02 10:36:30;;;;;;;52.92;47.47;;;;;;;5.87;59.08;95636.16;5040277;28;20059;-64
2023/03/02 10:38:57;;;;;;;47.03;41.25;;;;;;;5.92;59.15;95646.25;5052251;28;20445;-62
2023/03/02 10:41:31;;;;;;;52.30;46.60;;;;;;;5.98;59.36;95637.13;5041965;28;20025;-62
2023/03/02 10:44:03;;;;;;;53.67;48.03;;;;;;;5.99;59.95;95629.16;5039266;28;20410;-62
2023/03/02 10:46:39;;;;;;;57.20;47.35;;;;;;;6.27;59.84;95631.53;5049352;28;20021;-58
2023/03/02 10:49:23;;;;;;;52.05;46.22;;;;;;;6.76;57.23;95628.69;5041118;28;20033;-64
2023/03/02 10:52:04;;;;;;;54.88;47.80;;;;;;;6.81;57.33;95637.84;5043691;28;20043;-70
2023/03/02 10:54:32;;;;;;;51.22;45.72;;;;;;;6.76;56.63;95641.75;5046190;28;20108;-70
2023/03/02 10:57:03;;;;;;;52.35;45.92;;;;;;;6.93;56.27;95630.81;5046435;28;20550;-70
2023/03/02 10:59:44;;;;;;;49.30;44.03;;;;;;;7.15;56.70;95627.31;5042748;28;20029;-70
2023/03/02 11:02:22;;;;;;;49.88;44.67;;;;;;;7.58;54.95;95625.66;5053164;28;20499;-70
2023/03/02 11:05:17;;;;;;;51.17;45.90;;;;;;;7.77;53.57;95629.41;5045655;28;20043;-70
2023/03/02 11:07:55;;;;;;;54.80;47.08;;;;;;;7.41;54.34;95628.81;5046313;28;20027;-66
2023/03/02 11:10:44;;;;;;;48.38;43.17;;;;;;;7.94;53.14;95624.53;5048134;28;20021;-66
2023/03/02 11:13:27;;;;;;;46.38;40.47;;;;;;;8.32;50.78;95621.34;5039886;28;20033;-66
2023/03/02 11:15:58;;;;;;;49.40;44.38;;;;;;;7.94;51.33;95621.91;5044850;28;20049;-66
2023/03/02 11:18:28;;;;;;;48.17;42.70;;;;;;;7.76;51.90;95621.63;5041064;28;20025;-65
2023/03/02 11:21:16;;;;;;;47.35;42.20;;;;;;;8.20;52.11;95626.78;5036719;28;20033;-66
2023/03/02 11:23:56;;;;;;;49.05;42.70;;;;;;;8.49;50.55;95629.53;5038233;28;20037;-65
2023/03/02 11:26:24;;;;;;;45.22;40.25;;;;;;;8.62;50.20;95618.03;5037380;28;20090;-63
2023/03/02 11:29:18;;;;;;;41.03;36.20;;;;;;;9.13;48.10;95619.72;5041904;28;20099;-64